LiveATC.Net - Listen to live air traffic control over the Internet!
Airport/ARTCC Code
Frequency Search
(e.g., 124.400, 128.75)
Site-wide search
 


Browse Feeds
Top 50 Feeds
Coverage Map
Bad Weather Areas

LiveATC FAQ
Offer LiveATC feed
Contact LiveATC.net
Press Inquiries

LiveATC on iPhone
LiveATC on Android

Windows Phone
Windows 8/10

LiveATC Mobile
(Mobile browser)

ATC Audio Archives
Interesting Recordings

LiveATC Forums

Home Page
About LiveATC.net
Make a Donation
Terms of Use
Privacy Policy

Canadian Air Freqs

AIRMETs/SIGMETs

FAA Airport Status
Nat'l Airspace Status
Arrival Demand Charts


Server Software By:
Icecast.org
Liquidsoap

Select an area of interest:
U.S. Feeds: Class B Airports | Class C Airports | Class D/Other Airports | ARTCC (Centers)
International Feeds: Canada | Europe | Oceania | Asia | South America | North/Central America | Africa
Misc Feeds: HF Feeds
Search by ICAO/IATA airport code:   (e.g., kbos, kjfk, lax, eham, etc.)


Currently Available Live Feeds: 2561
Status Updated: Thu Jun 04 2020 02:56:21 UTC


NOTICE

Unauthorized use prohibited. See LiveATC.net Terms of Service

North and Central America Airport Feeds

 

MDPP App/Dep (Archives)
Puerto Plata, Dominican Republic

Feed Status: UP
Listen in your browser - HTML5 player(in browser, HTML5)
Click here to listen with your own player(launches your MP3 player)

MDPP 040000Z 10015KT 9999 FEW020 29/25 Q1014

MDPP Flight Activity (Flightaware)

Listeners: 0 out of 857 total

Puerto Plata Approach/Departure: 119.000

MDPP Ground/Center (Archives)
Puerto Plata, Dominican Republic

Feed Status: UP
Listen in your browser - HTML5 player(in browser, HTML5)
Click here to listen with your own player(launches your MP3 player)

MDPP 040000Z 10015KT 9999 FEW020 29/25 Q1014

MDPP Flight Activity (Flightaware)

Listeners: 0 out of 857 total

Puerto Plata Ground: 121.900
Puerto Plata Tower: 118.000
Santo Domingo Center: 124.300

MDPP Ground/Tower/Center (Archives)
Puerto Plata, Dominican Republic

Feed Status: UP
Listen in your browser - HTML5 player(in browser, HTML5)
Click here to listen with your own player(launches your MP3 player)

MDPP 040000Z 10015KT 9999 FEW020 29/25 Q1014

MDPP Flight Activity (Flightaware)

Listeners: 0 out of 857 total

Puerto Plata Ground: 121.900
Puerto Plata Tower: 118.000
Santo Domingo Center: 124.300

MDPP Tower (Archives)
Puerto Plata, Dominican Republic

Feed Status: UP
Listen in your browser - HTML5 player(in browser, HTML5)
Click here to listen with your own player(launches your MP3 player)

MDPP 040000Z 10015KT 9999 FEW020 29/25 Q1014

MDPP Flight Activity (Flightaware)

Listeners: 0 out of 857 total

Puerto Plata Tower: 118.000

MMAN Tower
Monterrey, Mexico

Feed Status: DOWN
Offline since: 2020-02-14 03:08:22 UTC

MMAN 040140Z 10005KT 15SM SCT040 30/18 A2992 RMK 8/500

Monterrey Tower: 118.600

MMCU Twr/App (Archives)
Chihuahua, Mexico

Feed Status: UP
Listen in your browser - HTML5 player(in browser, HTML5)
Click here to listen with your own player(launches your MP3 player)

MMCU 040143Z 02005KT 10SM FEW030 SCT200 34/01 A2997 RMK 8/102

MMCU Flight Activity (Flightaware)

Listeners: 2 out of 857 total

Chihuahua Approach: 121.000
Chihuahua Tower: 118.400

MMGL Twr/App (Archives)
Guadalajara, Mexico

Feed Status: UP
Listen in your browser - HTML5 player(in browser, HTML5)
Click here to listen with your own player(launches your MP3 player)

MMGL 040145Z 32004KT 10SM SCT030 BKN100 31/08 A2994 RMK 8/530

MMGL Flight Activity (Flightaware)

Listeners: 5 out of 857 total

Guadalajara Approach: 120.800
Guadalajara Tower: 118.100

MMHO App/Dep
Hermosillo, Mexico

Feed Status: DOWN
Offline since: 2019-11-27 01:26:40 UTC

MMHO 040143Z 23002KT 10SM SKC 39/12 A2974 RMK HZY

Hermosillo Approach/Departure: 121.400

MMHO Tower
Hermosillo, Mexico

Feed Status: DOWN
Offline since: 2019-11-27 01:26:40 UTC

MMHO 040143Z 23002KT 10SM SKC 39/12 A2974 RMK HZY

Hermosillo Tower: 118.700

MMLP Twr/App (Archives)
La Paz, Mexico

Feed Status: UP
Listen in your browser - HTML5 player(in browser, HTML5)
Click here to listen with your own player(launches your MP3 player)

MMLP 040145Z 18018KT 10SM SKC 26/13 A2980 RMK HZY

MMLP Flight Activity (Flightaware)

Listeners: 0 out of 857 total

La Paz Approach: 120.600
La Paz Tower: 118.100

MMMD Tower/Approach
Merida, Mexico

Feed Status: DOWN
Offline since: 2020-05-07 14:21:39 UTC

MMMD 040149Z 06008KT 6SM -RA BKN012 OVC060 ///// A2977 RMK 8/77/ MSG TX MMMX

Merida Approach: 121.200
Merida Tower: 118.300

MMMM Tower (Archives)
Morelia, Mexico

Feed Status: UP
Listen in your browser - HTML5 player(in browser, HTML5)
Click here to listen with your own player(launches your MP3 player)

MMMM 040140Z 04006KT 8SM BKN030 26/10 A3007 RMK 8/500 HZY

MMMM Flight Activity (Flightaware)

Listeners: 0 out of 857 total

Morelia Tower: 118.500

MMMX Approach (Archives)
Mexico City, Mexico

Feed Status: UP
Listen in your browser - HTML5 player(in browser, HTML5)
Click here to listen with your own player(launches your MP3 player)

MMMX 040145Z 05013KT 12SM SCT025 SCT070 21/10 A3024 NOSIG RMK 8/430 ISOL CI DSNT CB S

MMMX Flight Activity (Flightaware)

Listeners: 2 out of 857 total

Mexico City Approach: 121.200

MMMX Twr/App (Archives)
Mexico City, Mexico

Feed Status: UP
Listen in your browser - HTML5 player(in browser, HTML5)
Click here to listen with your own player(launches your MP3 player)

MMMX 040145Z 05013KT 12SM SCT025 SCT070 21/10 A3024 NOSIG RMK 8/430 ISOL CI DSNT CB S

MMMX Flight Activity (Flightaware)

Listeners: 7 out of 857 total

Mexico City Approach: 121.200
Mexico City Departure (East): 120.500
Mexico City Departure (West): 129.100
Mexico City Final Approach: 119.750
Mexico City Helicopters: 118.150
Mexico City Terminal: 129.600
Mexico City Tower: 118.550

MMMY Tower/Approach (Archives)
Monterrey, Mexico

Feed Status: UP
Listen in your browser - HTML5 player(in browser, HTML5)
Click here to listen with your own player(launches your MP3 player)

MMMY 040141Z 10006KT 15SM SCT050 30/20 A2987 RMK 8/500

MMMY Flight Activity (Flightaware)

Listeners: 0 out of 857 total

Monterrey Approach/Departure: 119.750
Monterrey Tower: 118.100

MMQT Tower/App
Queretaro, Mexico

Feed Status: DOWN
Offline since: 2020-01-27 20:28:06 UTC

MMQT 040140Z 06017KT 12SM FEW020 23/11 A3020 RMK 8/400

Queretaro Approach: 127.200
Queretaro Tower: 118.950

MMSP Gnd/Twr/App/Center (Archives)
San Luis Potosi, Mexico

Feed Status: UP
Listen in your browser - HTML5 player(in browser, HTML5)
Click here to listen with your own player(launches your MP3 player)

MMSP 040140Z 09012KT 12SM FEW030 22/13 A3014 RMK 8/400

MMSP Flight Activity (Flightaware)

Listeners: 0 out of 857 total

AMX Ground Ops: 131.000
Mexico Center (North, Sector 6): 126.000
Mexico Center (Northwest, Sector 7): 123.900
Mexico Center (West, Sector 5): 125.100
Potosi Approach: 127.500
Potosi Tower: 118.900
TAO Ground Ops: 133.600

MMTC Twr/App/Center (Archives)
Torreon, Mexico

Feed Status: UP
Listen in your browser - HTML5 player(in browser, HTML5)
Click here to listen with your own player(launches your MP3 player)

MMTC 040143Z 05006KT 10SM SCT030 SCT200 35/10 A2992 RMK 8/502

MMTC Flight Activity (Flightaware)

Listeners: 0 out of 857 total

Mazatlan Center: 124.200
Mazatlan Center: 124.400
Mazatlan Center: 128.000
Mexico Center: 123.900
Monterrey Center: 125.600
Monterrey Center: 125.425
Monterrey Center: 127.400
Torreon Approach: 119.500
Torreon Tower: 118.500

MMTJ Approach (Archives)
Tijuana, Mexico

Feed Status: UP
Listen in your browser - HTML5 player(in browser, HTML5)
Click here to listen with your own player(launches your MP3 player)

MMTJ 040141Z 31012KT 7SM SKC 23/16 A2989 RMK HZY SC 3RD QUAD

MMTJ Flight Activity (Flightaware)

Listeners: 0 out of 857 total

Tijuana Approach: 120.300

MMTJ Twr/Ramp (Archives)
Tijuana, Mexico

Feed Status: UP
Listen in your browser - HTML5 player(in browser, HTML5)
Click here to listen with your own player(launches your MP3 player)

MMTJ 040141Z 31012KT 7SM SKC 23/16 A2989 RMK HZY SC 3RD QUAD

MMTJ Flight Activity (Flightaware)

Listeners: 1 out of 857 total

Tijuana Ramp: 126.100
Tijuana Tower: 118.100

MUFH Havana FIR (App/Center) (Archives)
Havana, Cuba

Feed Status: UP
Listen in your browser - HTML5 player(in browser, HTML5)
Click here to listen with your own player(launches your MP3 player)

MUFH Flight Activity (Flightaware)

Listeners: 0 out of 857 total

Hava Approach: 120.300
Havana Center: 120.250
Havana Center: 123.700
Havana Center: 124.550
Havana Center: 133.700
Havana Center: 135.100

TBPB Gnd/Twr/Radar/Center
Bridgetown, Barbados

Feed Status: DOWN
Offline since: 2020-06-04 02:00:05 UTC

TBPB 040200Z 10018KT 9999 BKN018 27/23 Q1016 NOSIG

Adams Approach/Departure: 129.350
Adams Approach/Departure: 128.850
Adams Ground: 121.900
Adams Tower: 118.700
Piarco Center: 123.700

TXKF Tower/Ground (Archives)
Hamilton, Bermuda

Feed Status: UP
Listen in your browser - HTML5 player(in browser, HTML5)
Click here to listen with your own player(launches your MP3 player)

TXKF 040155Z 18011KT 9999 FEW033 SCT300 21/14 Q1023

TXKF Flight Activity (Flightaware)

Listeners: 0 out of 857 total

Bermuda CTAF: 122.800
Bermuda Ground/Clearance: 124.500
Bermuda Tower: 118.100

ZNY Bermuda Sector (Archives)
Hamilton, Bermuda

Feed Status: UP
Listen in your browser - HTML5 player(in browser, HTML5)
Click here to listen with your own player(launches your MP3 player)

TXKF 040155Z 18011KT 9999 FEW033 SCT300 21/14 Q1023

TXKF Flight Activity (Flightaware)

Listeners: 0 out of 857 total

New York Approach (Bermuda Sector) : 119.100
New York Center (Bermuda Sector): 128.500

MHLC Gnd/Twr/Center (Archives)
La Ceiba, Honduras

Feed Status: UP
Listen in your browser - HTML5 player(in browser, HTML5)
Click here to listen with your own player(launches your MP3 player)

MHLC 031500Z VRB02KT 9999 FEW028 BKN070 30/25 Q1007 A2974

MHLC Flight Activity (Flightaware)

Listeners: 0 out of 857 total

CENAMER: 123.900
CENAMER: 124.300
Goloson Ground: 121.900
Goloson Tower: 118.500
La Ceiba Radio: 128.900

MHLM Gnd/Twr/App (Archives)
San Pedro Sula, Honduras

Feed Status: UP
Listen in your browser - HTML5 player(in browser, HTML5)
Click here to listen with your own player(launches your MP3 player)

MHLM 040200Z 21008KT 9999 FEW034 BKN080 32/19 Q1005 A2968

MHLM Flight Activity (Flightaware)

Listeners: 0 out of 857 total

La Mesa Ground: 121.900
La Mesa Tower: 118.200
San Pedro Sula Approach: 119.700

MHRO Gnd/Twr/App/Center (Archives)
Roatan, Honduras

Feed Status: UP
Listen in your browser - HTML5 player(in browser, HTML5)
Click here to listen with your own player(launches your MP3 player)

MHRO 031500Z 10018KT 9999 FEW022 BKN200 31/25 Q1008 A2977

MHRO Flight Activity (Flightaware)

Listeners: 0 out of 857 total

CENAMER (Center): 124.300
La Ceiba Radio: 128.900
Roatan Ground: 121.600
Roatan Tower: 118.100

MHTG ATIS
Tegucigalpa, Honduras

Feed Status: DOWN
Offline since: 2020-05-20 16:19:40 UTC

MHTG 031500Z 17004KT 8000 FEW025 SCT080 23/23 Q1017 A3003 RERA

Toncontin ATIS: 127.750

MHTG Gnd/Twr/App/Ctr/Ops (Archives)
Tegucigalpa, Honduras

Feed Status: UP
Listen in your browser - HTML5 player(in browser, HTML5)
Click here to listen with your own player(launches your MP3 player)

MHTG 031500Z 17004KT 8000 FEW025 SCT080 23/23 Q1017 A3003 RERA

MHTG Flight Activity (Flightaware)

Listeners: 0 out of 857 total

American Airlines Ops: 130.700
ARINC ACARS: 131.550
Cenamer Center: 123.900
Cenamer Center: 124.300
Cenamer Center: 124.100
CMP Ops: 129.925
Continental Airlines Ops: 129.925
FAH Ground: 122.900
Taca Ops: 131.300
Taca Ops Sal: 130.300
Tecnologias Unidas: 133.000
Tegucigalpa RDO: 126.700
Toncontin Approach: 119.100
Toncontin Ground: 121.900
Toncontin Tower: 118.700

MROC Del/Gnd/Twr (Archives)
San Jose, Costa Rica

Feed Status: UP
Listen in your browser - HTML5 player(in browser, HTML5)
Click here to listen with your own player(launches your MP3 player)

MROC 040200Z 06003KT 020V080 CAVOK 20/20 A3002 RERA NOSIG

MROC Flight Activity (Flightaware)

Listeners: 1 out of 857 total

Coco Clearance Delivery/Ground: 121.900
Coco Tower: 118.600

MROC Del/Gnd/Twr/App/Center/Misc (Archives)
San Jose, Costa Rica

Feed Status: UP
Listen in your browser - HTML5 player(in browser, HTML5)
Click here to listen with your own player(launches your MP3 player)

MROC 040200Z 06003KT 020V080 CAVOK 20/20 A3002 RERA NOSIG

MROC Flight Activity (Flightaware)

Listeners: 0 out of 857 total

Central American Center (CENAMER Control): 124.100
Coco Center (Control over CR Airspace): 119.600
Coco Clearance Delivery: 121.300
Coco Ground: 121.900
Coco Terminal Control: 120.500
Coco Tower: 118.600
Coco UNICOM: 126.800
SYQ Ground: 121.700
SYQ Tower: 118.300

MSLP Gnd/Twr/App (Archives)
San Salvador, El Salvador

Feed Status: UP
Listen in your browser - HTML5 player(in browser, HTML5)
Click here to listen with your own player(launches your MP3 player)

MSLP 040150Z 05002KT 9999 FEW015 25/24 Q1009 A2981 NOSIG

MSLP Flight Activity (Flightaware)

Listeners: 0 out of 857 total

Comalapa Ground: 121.700
Comalapa Tower: 118.000
Compalapa Approach: 119.900

MSLP Gnd/Twr/App/Center (Archives)
San Salvador, El Salvador

Feed Status: UP
Listen in your browser - HTML5 player(in browser, HTML5)
Click here to listen with your own player(launches your MP3 player)

MSLP 040150Z 05002KT 9999 FEW015 25/24 Q1009 A2981 NOSIG

MSLP Flight Activity (Flightaware)

Listeners: 0 out of 857 total

Avianca Ops: 123.500
CCA: 119.300
CENAMER: 124.100
Comalapa Authorizations: 121.250
Comalapa Departure: 123.900
Comalapa Ground: 121.700
Comalapa Tower: 118.000
Compalapa Approach: 119.900
Ilopango Tower: 118.300
TACA Ops: 130.500

MSSS Tower
San Salvador, El Salvador

Feed Status: DOWN
Offline since: 2020-06-03 16:33:05 UTC

MSSS 032150Z 10003KT 9999 FEW020 24/22 Q1011 A2986

Ilopango Tower: 118.300